Terminal Aerodrome Forecast
Issued by NWS

Home | Current Version | Previous Version | Text Only | Print | Product List | Glossary On
Versions: 1 2 3 4 5 6 7 8 9 10 11 12 13 14 15 16 17 18 19 20 21 22 23 24 25 26 27 28 29 30 31 32 33 34 35 36
983
FTAK31 PANC 212245 AAA
TAFATK
TAF AMD
PATK 212245Z 2123/2218 35005KT 2SM -SN BR OVC025
      TEMPO 2200/2204 5SM -SN BR
     FM220400 01004KT 5SM -SN BR OVC025
     FM220600 34003KT 5SM -SN BR OVC025=

USA.gov is the U.S. government's official web portal to all federal, state and local government web resources and services.